Список аэропортов
Фактическая погода:

01 марта, 22:00
Температура: +14°C (+12.1*)
Ветер: юго-восточный 7 м/с
Давление: *759 мм
не опр.
Время (МСК)Темп. СВетерВлажностьДавлениеОблачностьОсадки
21:00+12ЮВ, 6 м/с50%1013 гПас прояснениями
22:00+12ЮВ, 6 м/с51%1013 гПас прояснениями
23:00+11ЮВ, 6 м/с54%1012 гПас прояснениями
02 марта
00:00+11Ю, 6 м/с56%1012 гПаоблачно
01:00+11Ю, 6 м/с56%1012 гПамалооблачно
02:00+11Ю, 6 м/с56%1012 гПас прояснениями
03:00+11ЮВ, 6 м/с57%1012 гПаоблачно
04:00+11ЮВ, 6 м/с58%1011 гПаоблачно
05:00+12ЮВ, 6 м/с58%1011 гПаоблачно
06:00+12ЮВ, 7 м/с58%1011 гПаоблачно
07:00+12ЮВ, 7 м/с56%1010 гПаоблачно
08:00+13ЮВ, 8 м/с53%1010 гПас прояснениями
09:00+14ЮВ, 8 м/с50%1010 гПамалооблачно
10:00+15ЮВ, 7 м/с50%1010 гПамалооблачно
11:00+16Ю, 8 м/с48%1010 гПамалооблачно
12:00+16Ю, 8 м/с48%1010 гПамалооблачно
13:00+17Ю, 7 м/с47%1011 гПамалооблачно
14:00+17Ю, 6 м/с46%1011 гПамалооблачно
15:00+17Ю, 5 м/с45%1010 гПас прояснениями
16:00+17Ю, 5 м/с44%1010 гПамалооблачно
17:00+16Ю, 4 м/с45%1010 гПамалооблачно
18:00+15Ю, 2 м/с49%1011 гПаоблачно
19:00+13Ю, 1 м/с58%1011 гПаоблачно
20:00+12ЮВ, 1 м/с62%1011 гПаоблачно
21:00+12ЮВ, 2 м/с63%1011 гПаоблачно
22:00+11Ю, 1 м/с67%1011 гПаоблачно
23:00+10Ю, 1 м/с69%1011 гПаоблачно
03 марта
00:00+10ЮВ, 1 м/с71%1011 гПас прояснениями
01:00+10В, 2 м/с71%1011 гПас прояснениями
02:00+9В, 2 м/с72%1011 гПамалооблачно
03:00+8В, 1 м/с74%1011 гПамалооблачно
04:00+7Штиль 82%1010 гПамалооблачно
05:00+6СЗ, 1 м/с91%1011 гПамалооблачно
06:00+6СВ, 2 м/с89%1011 гПамалооблачно
07:00+5СВ, 1 м/с91%1011 гПамалооблачно
08:00+7В, 2 м/с87%1011 гПас прояснениями
09:00+8СВ, 1 м/с82%1012 гПас прояснениями
10:00+11С, 2 м/с79%1012 гПамалооблачно
11:00+13СЗ, 2 м/с62%1011 гПаясно
12:00+14З, 3 м/с58%1011 гПаясно
13:00+14З, 4 м/с57%1012 гПаясно
14:00+14З, 5 м/с58%1012 гПас прояснениями
15:00+13СЗ, 5 м/с62%1012 гПас прояснениями
16:00+13СЗ, 5 м/с67%1012 гПас прояснениями
17:00+11СЗ, 6 м/с72%1013 гПаоблачно
18:00+10СЗ, 6 м/с78%1013 гПаоблачно
19:00+9СЗ, 6 м/с81%1014 гПаоблачно
20:00+8СЗ, 4 м/с81%1015 гПаоблачно
21:00+8СЗ, 3 м/с81%1015 гПас прояснениями